sensor_id;sensor_type;location;lat;lon;timestamp;P1;durP1;ratioP1;P2;durP2;ratioP2
19587;SDS011;9940;47.252;8.696;2023-05-09T00:00:13;3.95;;;3.42;;
19587;SDS011;9940;47.252;8.696;2023-05-09T00:02:41;3.63;;;3.33;;
19587;SDS011;9940;47.252;8.696;2023-05-09T00:05:09;3.92;;;3.47;;
19587;SDS011;9940;47.252;8.696;2023-05-09T00:07:38;4.88;;;3.88;;
19587;SDS011;9940;47.252;8.696;2023-05-09T00:10:07;5.18;;;3.30;;
19587;SDS011;9940;47.252;8.696;2023-05-09T00:12:32;5.20;;;3.67;;
19587;SDS011;9940;47.252;8.696;2023-05-09T00:15:01;4.43;;;3.65;;
19587;SDS011;9940;47.252;8.696;2023-05-09T00:17:27;5.50;;;3.85;;
19587;SDS011;9940;47.252;8.696;2023-05-09T00:19:55;4.78;;;3.53;;
19587;SDS011;9940;47.252;8.696;2023-05-09T00:22:21;4.00;;;3.10;;
19587;SDS011;9940;47.252;8.696;2023-05-09T00:24:49;3.90;;;3.53;;
19587;SDS011;9940;47.252;8.696;2023-05-09T00:27:17;4.05;;;2.85;;
19587;SDS011;9940;47.252;8.696;2023-05-09T00:29:45;5.90;;;3.97;;
19587;SDS011;9940;47.252;8.696;2023-05-09T00:32:13;3.58;;;2.97;;
19587;SDS011;9940;47.252;8.696;2023-05-09T00:34:41;4.47;;;3.13;;
19587;SDS011;9940;47.252;8.696;2023-05-09T00:37:09;5.55;;;3.08;;
19587;SDS011;9940;47.252;8.696;2023-05-09T00:39:37;4.47;;;2.90;;
19587;SDS011;9940;47.252;8.696;2023-05-09T00:42:03;4.18;;;2.70;;
19587;SDS011;9940;47.252;8.696;2023-05-09T00:44:31;3.90;;;3.10;;
19587;SDS011;9940;47.252;8.696;2023-05-09T00:46:57;3.63;;;2.40;;
19587;SDS011;9940;47.252;8.696;2023-05-09T00:49:22;2.50;;;2.30;;
19587;SDS011;9940;47.252;8.696;2023-05-09T00:51:48;2.60;;;2.22;;
19587;SDS011;9940;47.252;8.696;2023-05-09T00:54:20;3.70;;;1.98;;
19587;SDS011;9940;47.252;8.696;2023-05-09T00:56:48;2.20;;;1.95;;
19587;SDS011;9940;47.252;8.696;2023-05-09T00:59:17;2.83;;;2.33;;
19587;SDS011;9940;47.252;8.696;2023-05-09T01:01:43;2.33;;;1.88;;
19587;SDS011;9940;47.252;8.696;2023-05-09T01:04:11;3.38;;;2.20;;
19587;SDS011;9940;47.252;8.696;2023-05-09T01:06:46;5.03;;;2.50;;
19587;SDS011;9940;47.252;8.696;2023-05-09T01:17:43;4.25;;;3.25;;
19587;SDS011;9940;47.252;8.696;2023-05-09T01:20:55;2.95;;;2.60;;
19587;SDS011;9940;47.252;8.696;2023-05-09T01:31:20;7.78;;;2.75;;
19587;SDS011;9940;47.252;8.696;2023-05-09T01:33:50;3.15;;;2.85;;
19587;SDS011;9940;47.252;8.696;2023-05-09T01:36:20;3.05;;;2.63;;
19587;SDS011;9940;47.252;8.696;2023-05-09T01:38:50;3.58;;;2.55;;
19587;SDS011;9940;47.252;8.696;2023-05-09T01:41:16;5.22;;;2.33;;
19587;SDS011;9940;47.252;8.696;2023-05-09T01:43:44;3.33;;;2.42;;
19587;SDS011;9940;47.252;8.696;2023-05-09T01:46:13;3.17;;;2.85;;
19587;SDS011;9940;47.252;8.696;2023-05-09T01:48:42;3.40;;;2.70;;
19587;SDS011;9940;47.252;8.696;2023-05-09T01:51:12;2.88;;;2.67;;
19587;SDS011;9940;47.252;8.696;2023-05-09T01:53:39;3.83;;;2.50;;
19587;SDS011;9940;47.252;8.696;2023-05-09T01:56:06;3.17;;;2.75;;
19587;SDS011;9940;47.252;8.696;2023-05-09T01:58:33;5.18;;;2.80;;
19587;SDS011;9940;47.252;8.696;2023-05-09T02:01:02;3.35;;;3.05;;
19587;SDS011;9940;47.252;8.696;2023-05-09T02:03:29;3.45;;;2.97;;
19587;SDS011;9940;47.252;8.696;2023-05-09T02:06:00;5.60;;;2.88;;
19587;SDS011;9940;47.252;8.696;2023-05-09T02:08:27;3.65;;;2.97;;
19587;SDS011;9940;47.252;8.696;2023-05-09T02:10:56;5.65;;;3.72;;
19587;SDS011;9940;47.252;8.696;2023-05-09T02:13:22;5.13;;;4.07;;
19587;SDS011;9940;47.252;8.696;2023-05-09T02:15:56;6.88;;;4.22;;
19587;SDS011;9940;47.252;8.696;2023-05-09T02:18:24;5.20;;;3.47;;
19587;SDS011;9940;47.252;8.696;2023-05-09T02:20:53;4.55;;;3.88;;
19587;SDS011;9940;47.252;8.696;2023-05-09T02:23:18;5.10;;;4.20;;
19587;SDS011;9940;47.252;8.696;2023-05-09T02:25:45;5.13;;;3.90;;
19587;SDS011;9940;47.252;8.696;2023-05-09T02:28:11;4.15;;;3.75;;
19587;SDS011;9940;47.252;8.696;2023-05-09T02:30:41;4.63;;;3.67;;
19587;SDS011;9940;47.252;8.696;2023-05-09T02:33:10;4.15;;;3.05;;
19587;SDS011;9940;47.252;8.696;2023-05-09T02:35:40;4.65;;;3.38;;
19587;SDS011;9940;47.252;8.696;2023-05-09T02:38:07;4.05;;;3.65;;
19587;SDS011;9940;47.252;8.696;2023-05-09T02:40:32;4.72;;;3.70;;
19587;SDS011;9940;47.252;8.696;2023-05-09T02:43:00;5.70;;;3.78;;
19587;SDS011;9940;47.252;8.696;2023-05-09T02:45:26;4.80;;;4.00;;
19587;SDS011;9940;47.252;8.696;2023-05-09T02:47:52;5.45;;;3.67;;
19587;SDS011;9940;47.252;8.696;2023-05-09T02:50:18;4.93;;;3.50;;
19587;SDS011;9940;47.252;8.696;2023-05-09T02:52:46;5.03;;;4.07;;
19587;SDS011;9940;47.252;8.696;2023-05-09T02:55:11;4.53;;;3.08;;
19587;SDS011;9940;47.252;8.696;2023-05-09T02:57:37;3.55;;;3.03;;
19587;SDS011;9940;47.252;8.696;2023-05-09T03:00:03;3.58;;;3.15;;
19587;SDS011;9940;47.252;8.696;2023-05-09T03:02:36;4.25;;;3.65;;
19587;SDS011;9940;47.252;8.696;2023-05-09T03:05:04;4.10;;;2.65;;
19587;SDS011;9940;47.252;8.696;2023-05-09T03:07:33;6.25;;;3.25;;
19587;SDS011;9940;47.252;8.696;2023-05-09T03:09:58;10.70;;;4.38;;
19587;SDS011;9940;47.252;8.696;2023-05-09T03:12:24;4.38;;;3.17;;
19587;SDS011;9940;47.252;8.696;2023-05-09T03:14:52;5.53;;;3.80;;
19587;SDS011;9940;47.252;8.696;2023-05-09T03:17:20;4.32;;;3.75;;
19587;SDS011;9940;47.252;8.696;2023-05-09T03:19:47;7.25;;;4.00;;
19587;SDS011;9940;47.252;8.696;2023-05-09T03:22:15;5.32;;;4.07;;
19587;SDS011;9940;47.252;8.696;2023-05-09T03:24:43;5.22;;;4.13;;
19587;SDS011;9940;47.252;8.696;2023-05-09T03:27:08;6.43;;;4.13;;
19587;SDS011;9940;47.252;8.696;2023-05-09T03:29:34;5.18;;;4.10;;
19587;SDS011;9940;47.252;8.696;2023-05-09T03:31:59;6.05;;;4.60;;
19587;SDS011;9940;47.252;8.696;2023-05-09T03:34:25;7.50;;;4.32;;
19587;SDS011;9940;47.252;8.696;2023-05-09T03:36:51;5.43;;;4.47;;
19587;SDS011;9940;47.252;8.696;2023-05-09T03:39:16;5.80;;;4.38;;
19587;SDS011;9940;47.252;8.696;2023-05-09T03:41:44;5.40;;;4.10;;
19587;SDS011;9940;47.252;8.696;2023-05-09T03:44:10;6.93;;;4.47;;
19587;SDS011;9940;47.252;8.696;2023-05-09T03:46:35;5.40;;;4.20;;
19587;SDS011;9940;47.252;8.696;2023-05-09T03:49:01;6.63;;;4.40;;
19587;SDS011;9940;47.252;8.696;2023-05-09T03:51:28;6.43;;;4.70;;
19587;SDS011;9940;47.252;8.696;2023-05-09T03:53:54;7.53;;;5.45;;
19587;SDS011;9940;47.252;8.696;2023-05-09T03:56:20;7.20;;;4.82;;
19587;SDS011;9940;47.252;8.696;2023-05-09T03:58:46;7.88;;;5.20;;
19587;SDS011;9940;47.252;8.696;2023-05-09T04:01:12;6.63;;;4.13;;
19587;SDS011;9940;47.252;8.696;2023-05-09T04:03:38;5.55;;;4.60;;
19587;SDS011;9940;47.252;8.696;2023-05-09T04:06:04;5.53;;;4.30;;
19587;SDS011;9940;47.252;8.696;2023-05-09T04:08:31;6.82;;;4.10;;
19587;SDS011;9940;47.252;8.696;2023-05-09T04:10:57;5.10;;;4.03;;
19587;SDS011;9940;47.252;8.696;2023-05-09T04:13:22;4.95;;;3.95;;
19587;SDS011;9940;47.252;8.696;2023-05-09T04:15:53;6.53;;;4.00;;
19587;SDS011;9940;47.252;8.696;2023-05-09T04:18:21;4.55;;;3.65;;
19587;SDS011;9940;47.252;8.696;2023-05-09T04:20:49;5.82;;;4.10;;
19587;SDS011;9940;47.252;8.696;2023-05-09T04:23:15;5.82;;;4.00;;
19587;SDS011;9940;47.252;8.696;2023-05-09T04:25:43;5.25;;;3.78;;
19587;SDS011;9940;47.252;8.696;2023-05-09T04:28:08;6.40;;;4.25;;
19587;SDS011;9940;47.252;8.696;2023-05-09T04:30:34;5.25;;;3.53;;
19587;SDS011;9940;47.252;8.696;2023-05-09T04:33:01;5.32;;;3.70;;
19587;SDS011;9940;47.252;8.696;2023-05-09T04:35:29;4.53;;;3.53;;
19587;SDS011;9940;47.252;8.696;2023-05-09T04:37:54;5.25;;;3.90;;
19587;SDS011;9940;47.252;8.696;2023-05-09T04:40:27;6.78;;;4.07;;
19587;SDS011;9940;47.252;8.696;2023-05-09T04:42:52;6.85;;;4.18;;
19587;SDS011;9940;47.252;8.696;2023-05-09T04:45:23;6.80;;;3.90;;
19587;SDS011;9940;47.252;8.696;2023-05-09T04:47:49;6.43;;;4.25;;
19587;SDS011;9940;47.252;8.696;2023-05-09T04:50:15;6.68;;;4.65;;
19587;SDS011;9940;47.252;8.696;2023-05-09T04:52:41;4.90;;;4.20;;
19587;SDS011;9940;47.252;8.696;2023-05-09T04:55:09;5.50;;;4.65;;
19587;SDS011;9940;47.252;8.696;2023-05-09T04:57:34;7.22;;;4.80;;
19587;SDS011;9940;47.252;8.696;2023-05-09T05:00:02;5.22;;;4.07;;
19587;SDS011;9940;47.252;8.696;2023-05-09T05:02:31;6.63;;;4.25;;
19587;SDS011;9940;47.252;8.696;2023-05-09T05:04:56;5.07;;;4.32;;
19587;SDS011;9940;47.252;8.696;2023-05-09T05:07:22;5.75;;;4.30;;
19587;SDS011;9940;47.252;8.696;2023-05-09T05:09:50;5.60;;;4.95;;
19587;SDS011;9940;47.252;8.696;2023-05-09T05:12:16;6.55;;;4.30;;
19587;SDS011;9940;47.252;8.696;2023-05-09T05:14:44;6.20;;;4.82;;
19587;SDS011;9940;47.252;8.696;2023-05-09T05:17:09;7.70;;;4.80;;
19587;SDS011;9940;47.252;8.696;2023-05-09T05:19:35;7.18;;;4.32;;
19587;SDS011;9940;47.252;8.696;2023-05-09T05:22:00;5.72;;;4.13;;
19587;SDS011;9940;47.252;8.696;2023-05-09T05:24:28;8.95;;;4.90;;
19587;SDS011;9940;47.252;8.696;2023-05-09T05:26:54;10.13;;;6.40;;
19587;SDS011;9940;47.252;8.696;2023-05-09T05:29:20;7.57;;;5.10;;
19587;SDS011;9940;47.252;8.696;2023-05-09T05:31:45;5.00;;;4.45;;
19587;SDS011;9940;47.252;8.696;2023-05-09T05:34:11;9.43;;;6.10;;
19587;SDS011;9940;47.252;8.696;2023-05-09T05:36:37;6.30;;;5.13;;
19587;SDS011;9940;47.252;8.696;2023-05-09T05:39:05;6.50;;;4.78;;
19587;SDS011;9940;47.252;8.696;2023-05-09T05:41:35;5.15;;;4.25;;
19587;SDS011;9940;47.252;8.696;2023-05-09T05:44:00;5.28;;;4.38;;
19587;SDS011;9940;47.252;8.696;2023-05-09T05:46:26;6.15;;;5.03;;
19587;SDS011;9940;47.252;8.696;2023-05-09T05:48:54;7.75;;;4.57;;
19587;SDS011;9940;47.252;8.696;2023-05-09T05:51:20;6.40;;;4.28;;
19587;SDS011;9940;47.252;8.696;2023-05-09T05:53:46;6.25;;;4.40;;
19587;SDS011;9940;47.252;8.696;2023-05-09T05:56:14;4.97;;;4.28;;
19587;SDS011;9940;47.252;8.696;2023-05-09T05:58:42;5.85;;;4.72;;
19587;SDS011;9940;47.252;8.696;2023-05-09T06:01:08;6.38;;;4.35;;
19587;SDS011;9940;47.252;8.696;2023-05-09T06:03:33;6.03;;;5.03;;
19587;SDS011;9940;47.252;8.696;2023-05-09T06:06:03;6.50;;;4.45;;
19587;SDS011;9940;47.252;8.696;2023-05-09T06:08:31;5.95;;;4.50;;
19587;SDS011;9940;47.252;8.696;2023-05-09T06:10:57;10.43;;;7.57;;
19587;SDS011;9940;47.252;8.696;2023-05-09T06:13:24;7.47;;;6.10;;
19587;SDS011;9940;47.252;8.696;2023-05-09T06:15:52;7.50;;;4.93;;
19587;SDS011;9940;47.252;8.696;2023-05-09T06:18:19;5.53;;;4.60;;
19587;SDS011;9940;47.252;8.696;2023-05-09T06:20:45;6.22;;;4.95;;
19587;SDS011;9940;47.252;8.696;2023-05-09T06:23:11;8.30;;;4.75;;
19587;SDS011;9940;47.252;8.696;2023-05-09T06:25:36;6.30;;;5.00;;
19587;SDS011;9940;47.252;8.696;2023-05-09T06:28:02;5.75;;;4.85;;
19587;SDS011;9940;47.252;8.696;2023-05-09T06:30:28;6.50;;;5.68;;
19587;SDS011;9940;47.252;8.696;2023-05-09T06:32:56;6.00;;;4.68;;
19587;SDS011;9940;47.252;8.696;2023-05-09T06:35:22;8.73;;;4.95;;
19587;SDS011;9940;47.252;8.696;2023-05-09T06:37:47;6.10;;;4.85;;
19587;SDS011;9940;47.252;8.696;2023-05-09T06:40:16;8.45;;;4.68;;
19587;SDS011;9940;47.252;8.696;2023-05-09T06:42:42;7.53;;;5.20;;
19587;SDS011;9940;47.252;8.696;2023-05-09T06:45:11;4.55;;;3.97;;
19587;SDS011;9940;47.252;8.696;2023-05-09T06:47:36;4.57;;;4.18;;
19587;SDS011;9940;47.252;8.696;2023-05-09T06:50:02;4.63;;;3.88;;
19587;SDS011;9940;47.252;8.696;2023-05-09T06:52:28;4.45;;;3.88;;
19587;SDS011;9940;47.252;8.696;2023-05-09T06:54:53;5.28;;;3.40;;
19587;SDS011;9940;47.252;8.696;2023-05-09T06:57:19;3.30;;;3.00;;
19587;SDS011;9940;47.252;8.696;2023-05-09T06:59:45;4.65;;;3.50;;
19587;SDS011;9940;47.252;8.696;2023-05-09T07:02:10;3.05;;;2.53;;
19587;SDS011;9940;47.252;8.696;2023-05-09T07:04:36;3.38;;;2.65;;
19587;SDS011;9940;47.252;8.696;2023-05-09T07:07:04;3.85;;;2.55;;
19587;SDS011;9940;47.252;8.696;2023-05-09T07:09:29;2.33;;;2.15;;
19587;SDS011;9940;47.252;8.696;2023-05-09T07:11:55;2.40;;;2.20;;
19587;SDS011;9940;47.252;8.696;2023-05-09T07:14:23;3.17;;;2.78;;
19587;SDS011;9940;47.252;8.696;2023-05-09T07:16:51;4.18;;;3.30;;
19587;SDS011;9940;47.252;8.696;2023-05-09T07:19:19;5.13;;;4.13;;
19587;SDS011;9940;47.252;8.696;2023-05-09T07:21:44;4.40;;;4.00;;
19587;SDS011;9940;47.252;8.696;2023-05-09T07:24:14;3.65;;;3.17;;
19587;SDS011;9940;47.252;8.696;2023-05-09T07:26:40;6.03;;;2.15;;
19587;SDS011;9940;47.252;8.696;2023-05-09T07:29:06;2.83;;;2.58;;
19587;SDS011;9940;47.252;8.696;2023-05-09T07:31:31;4.65;;;3.58;;
19587;SDS011;9940;47.252;8.696;2023-05-09T07:34:02;3.45;;;2.60;;
19587;SDS011;9940;47.252;8.696;2023-05-09T07:36:27;2.85;;;2.65;;
19587;SDS011;9940;47.252;8.696;2023-05-09T07:38:53;5.63;;;2.53;;
19587;SDS011;9940;47.252;8.696;2023-05-09T07:41:18;2.60;;;2.40;;
19587;SDS011;9940;47.252;8.696;2023-05-09T07:43:49;3.88;;;2.70;;
19587;SDS011;9940;47.252;8.696;2023-05-09T07:46:14;4.82;;;3.10;;
19587;SDS011;9940;47.252;8.696;2023-05-09T07:48:42;3.33;;;3.03;;
19587;SDS011;9940;47.252;8.696;2023-05-09T07:51:10;2.88;;;2.55;;
19587;SDS011;9940;47.252;8.696;2023-05-09T07:53:36;2.60;;;2.40;;
19587;SDS011;9940;47.252;8.696;2023-05-09T07:56:01;2.42;;;2.20;;
19587;SDS011;9940;47.252;8.696;2023-05-09T07:58:30;3.80;;;2.30;;
19587;SDS011;9940;47.252;8.696;2023-05-09T08:00:58;2.85;;;2.50;;
19587;SDS011;9940;47.252;8.696;2023-05-09T08:03:26;4.28;;;3.47;;
19587;SDS011;9940;47.252;8.696;2023-05-09T08:05:52;4.75;;;4.18;;
19587;SDS011;9940;47.252;8.696;2023-05-09T08:08:21;5.10;;;4.60;;
19587;SDS011;9940;47.252;8.696;2023-05-09T08:10:47;4.70;;;4.13;;
19587;SDS011;9940;47.252;8.696;2023-05-09T08:13:15;5.07;;;4.55;;
19587;SDS011;9940;47.252;8.696;2023-05-09T08:15:48;6.50;;;4.50;;
19587;SDS011;9940;47.252;8.696;2023-05-09T08:18:16;8.93;;;4.55;;
19587;SDS011;9940;47.252;8.696;2023-05-09T08:20:44;4.50;;;4.10;;
19587;SDS011;9940;47.252;8.696;2023-05-09T08:23:09;4.70;;;4.30;;
19587;SDS011;9940;47.252;8.696;2023-05-09T08:25:35;6.22;;;4.07;;
19587;SDS011;9940;47.252;8.696;2023-05-09T08:28:03;6.22;;;3.75;;
19587;SDS011;9940;47.252;8.696;2023-05-09T08:30:31;5.20;;;4.25;;
19587;SDS011;9940;47.252;8.696;2023-05-09T08:32:56;5.70;;;4.70;;
19587;SDS011;9940;47.252;8.696;2023-05-09T08:35:24;4.80;;;4.30;;
19587;SDS011;9940;47.252;8.696;2023-05-09T08:37:53;4.10;;;3.70;;
19587;SDS011;9940;47.252;8.696;2023-05-09T08:40:20;4.68;;;4.18;;
19587;SDS011;9940;47.252;8.696;2023-05-09T08:42:46;6.20;;;4.68;;
19587;SDS011;9940;47.252;8.696;2023-05-09T08:45:13;4.75;;;3.97;;
19587;SDS011;9940;47.252;8.696;2023-05-09T08:47:46;5.10;;;4.38;;
19587;SDS011;9940;47.252;8.696;2023-05-09T08:50:12;3.92;;;3.53;;
19587;SDS011;9940;47.252;8.696;2023-05-09T08:52:39;4.35;;;3.95;;
19587;SDS011;9940;47.252;8.696;2023-05-09T08:55:07;3.92;;;2.80;;
19587;SDS011;9940;47.252;8.696;2023-05-09T08:57:33;4.38;;;3.38;;
19587;SDS011;9940;47.252;8.696;2023-05-09T09:00:02;4.00;;;3.50;;
19587;SDS011;9940;47.252;8.696;2023-05-09T09:02:33;8.37;;;3.70;;
19587;SDS011;9940;47.252;8.696;2023-05-09T09:04:59;4.43;;;3.03;;
19587;SDS011;9940;47.252;8.696;2023-05-09T09:07:26;3.05;;;2.50;;
19587;SDS011;9940;47.252;8.696;2023-05-09T09:09:54;5.05;;;2.47;;
19587;SDS011;9940;47.252;8.696;2023-05-09T09:12:24;2.88;;;2.55;;
19587;SDS011;9940;47.252;8.696;2023-05-09T09:14:53;4.60;;;3.00;;
19587;SDS011;9940;47.252;8.696;2023-05-09T09:17:23;5.07;;;3.40;;
19587;SDS011;9940;47.252;8.696;2023-05-09T09:19:57;3.03;;;2.72;;
19587;SDS011;9940;47.252;8.696;2023-05-09T09:22:28;2.45;;;2.22;;
19587;SDS011;9940;47.252;8.696;2023-05-09T09:25:03;2.22;;;2.03;;
19587;SDS011;9940;47.252;8.696;2023-05-09T09:27:30;2.53;;;2.10;;
19587;SDS011;9940;47.252;8.696;2023-05-09T09:30:05;2.42;;;2.20;;
19587;SDS011;9940;47.252;8.696;2023-05-09T09:32:31;2.33;;;2.10;;
19587;SDS011;9940;47.252;8.696;2023-05-09T09:35:05;2.63;;;1.98;;
19587;SDS011;9940;47.252;8.696;2023-05-09T09:37:35;2.10;;;2.00;;
19587;SDS011;9940;47.252;8.696;2023-05-09T09:40:02;2.40;;;2.20;;
19587;SDS011;9940;47.252;8.696;2023-05-09T09:42:45;1.85;;;1.75;;
19587;SDS011;9940;47.252;8.696;2023-05-09T09:45:12;1.92;;;1.83;;
19587;SDS011;9940;47.252;8.696;2023-05-09T09:47:39;1.85;;;1.75;;
19587;SDS011;9940;47.252;8.696;2023-05-09T09:52:58;2.60;;;1.80;;
19587;SDS011;9940;47.252;8.696;2023-05-09T09:55:27;2.00;;;1.85;;
19587;SDS011;9940;47.252;8.696;2023-05-09T09:57:56;1.75;;;1.65;;
19587;SDS011;9940;47.252;8.696;2023-05-09T10:00:24;2.53;;;1.52;;
19587;SDS011;9940;47.252;8.696;2023-05-09T10:02:55;1.83;;;1.50;;
19587;SDS011;9940;47.252;8.696;2023-05-09T10:05:23;2.05;;;1.95;;
19587;SDS011;9940;47.252;8.696;2023-05-09T10:08:01;2.08;;;1.50;;
19587;SDS011;9940;47.252;8.696;2023-05-09T10:10:33;1.60;;;1.50;;
19587;SDS011;9940;47.252;8.696;2023-05-09T10:13:01;1.70;;;1.60;;
19587;SDS011;9940;47.252;8.696;2023-05-09T10:15:28;2.08;;;1.98;;
19587;SDS011;9940;47.252;8.696;2023-05-09T10:17:59;1.80;;;1.70;;
19587;SDS011;9940;47.252;8.696;2023-05-09T10:20:28;1.85;;;1.75;;
19587;SDS011;9940;47.252;8.696;2023-05-09T10:23:00;1.52;;;1.45;;
19587;SDS011;9940;47.252;8.696;2023-05-09T10:25:31;2.33;;;1.88;;
19587;SDS011;9940;47.252;8.696;2023-05-09T10:28:11;1.90;;;1.80;;
19587;SDS011;9940;47.252;8.696;2023-05-09T10:31:25;1.60;;;1.50;;
19587;SDS011;9940;47.252;8.696;2023-05-09T10:33:45;1.30;;;1.20;;
19587;SDS011;9940;47.252;8.696;2023-05-09T10:36:15;2.00;;;1.90;;
19587;SDS011;9940;47.252;8.696;2023-05-09T10:38:42;1.77;;;1.67;;
19587;SDS011;9940;47.252;8.696;2023-05-09T10:41:11;2.30;;;2.20;;
19587;SDS011;9940;47.252;8.696;2023-05-09T10:43:43;2.58;;;2.13;;
19587;SDS011;9940;47.252;8.696;2023-05-09T10:46:09;1.92;;;1.83;;
19587;SDS011;9940;47.252;8.696;2023-05-09T10:48:37;2.45;;;2.28;;
19587;SDS011;9940;47.252;8.696;2023-05-09T10:51:03;2.22;;;2.13;;
19587;SDS011;9940;47.252;8.696;2023-05-09T10:53:43;2.55;;;2.20;;
19587;SDS011;9940;47.252;8.696;2023-05-09T10:58:59;2.92;;;2.72;;
19587;SDS011;9940;47.252;8.696;2023-05-09T11:04:01;3.03;;;2.83;;
19587;SDS011;9940;47.252;8.696;2023-05-09T11:14:37;1.73;;;1.63;;
19587;SDS011;9940;47.252;8.696;2023-05-09T11:17:06;2.10;;;2.00;;
19587;SDS011;9940;47.252;8.696;2023-05-09T11:22:18;2.45;;;2.35;;
19587;SDS011;9940;47.252;8.696;2023-05-09T11:25:02;3.10;;;3.00;;
19587;SDS011;9940;47.252;8.696;2023-05-09T11:27:28;3.90;;;3.47;;
19587;SDS011;9940;47.252;8.696;2023-05-09T11:30:06;3.80;;;3.60;;
19587;SDS011;9940;47.252;8.696;2023-05-09T11:32:39;4.57;;;4.38;;
19587;SDS011;9940;47.252;8.696;2023-05-09T11:35:18;3.50;;;3.22;;
19587;SDS011;9940;47.252;8.696;2023-05-09T11:37:48;4.50;;;4.30;;
19587;SDS011;9940;47.252;8.696;2023-05-09T11:40:16;3.03;;;2.93;;
19587;SDS011;9940;47.252;8.696;2023-05-09T11:42:44;3.90;;;3.70;;
19587;SDS011;9940;47.252;8.696;2023-05-09T11:45:19;5.70;;;5.40;;
19587;SDS011;9940;47.252;8.696;2023-05-09T11:47:53;3.77;;;3.57;;
19587;SDS011;9940;47.252;8.696;2023-05-09T11:50:21;3.10;;;3.00;;
19587;SDS011;9940;47.252;8.696;2023-05-09T11:52:47;3.85;;;3.65;;
19587;SDS011;9940;47.252;8.696;2023-05-09T11:55:16;3.42;;;3.22;;
19587;SDS011;9940;47.252;8.696;2023-05-09T11:57:47;2.40;;;2.30;;
19587;SDS011;9940;47.252;8.696;2023-05-09T12:00:21;3.63;;;3.42;;
19587;SDS011;9940;47.252;8.696;2023-05-09T12:02:50;3.60;;;3.40;;
19587;SDS011;9940;47.252;8.696;2023-05-09T12:05:20;3.40;;;3.20;;
19587;SDS011;9940;47.252;8.696;2023-05-09T12:07:46;2.53;;;2.40;;
19587;SDS011;9940;47.252;8.696;2023-05-09T12:10:17;2.90;;;2.70;;
19587;SDS011;9940;47.252;8.696;2023-05-09T12:12:47;4.15;;;3.95;;
19587;SDS011;9940;47.252;8.696;2023-05-09T12:15:15;3.10;;;2.90;;
19587;SDS011;9940;47.252;8.696;2023-05-09T12:17:41;5.15;;;4.95;;
19587;SDS011;9940;47.252;8.696;2023-05-09T12:20:08;6.43;;;6.00;;
19587;SDS011;9940;47.252;8.696;2023-05-09T12:22:34;4.53;;;4.32;;
19587;SDS011;9940;47.252;8.696;2023-05-09T12:25:03;2.85;;;2.75;;
19587;SDS011;9940;47.252;8.696;2023-05-09T12:27:31;3.70;;;3.50;;
19587;SDS011;9940;47.252;8.696;2023-05-09T12:29:59;3.95;;;3.75;;
19587;SDS011;9940;47.252;8.696;2023-05-09T12:32:31;4.40;;;4.18;;
19587;SDS011;9940;47.252;8.696;2023-05-09T12:34:57;4.75;;;4.15;;
19587;SDS011;9940;47.252;8.696;2023-05-09T12:37:24;4.35;;;4.15;;
19587;SDS011;9940;47.252;8.696;2023-05-09T12:40:07;5.05;;;4.65;;
19587;SDS011;9940;47.252;8.696;2023-05-09T12:42:35;3.45;;;2.92;;
19587;SDS011;9940;47.252;8.696;2023-05-09T12:45:01;5.80;;;5.20;;
19587;SDS011;9940;47.252;8.696;2023-05-09T12:47:30;6.15;;;5.85;;
19587;SDS011;9940;47.252;8.696;2023-05-09T12:49:57;4.95;;;4.28;;
19587;SDS011;9940;47.252;8.696;2023-05-09T12:52:23;3.30;;;3.20;;
19587;SDS011;9940;47.252;8.696;2023-05-09T12:54:50;2.58;;;2.47;;
19587;SDS011;9940;47.252;8.696;2023-05-09T12:57:20;3.72;;;3.55;;
19587;SDS011;9940;47.252;8.696;2023-05-09T12:59:56;3.53;;;3.33;;
19587;SDS011;9940;47.252;8.696;2023-05-09T13:02:25;2.75;;;2.55;;
19587;SDS011;9940;47.252;8.696;2023-05-09T13:05:04;3.70;;;3.50;;
19587;SDS011;9940;47.252;8.696;2023-05-09T13:07:44;3.43;;;3.23;;
19587;SDS011;9940;47.252;8.696;2023-05-09T13:10:14;4.20;;;4.00;;
19587;SDS011;9940;47.252;8.696;2023-05-09T13:12:45;2.65;;;2.30;;
19587;SDS011;9940;47.252;8.696;2023-05-09T13:15:13;4.45;;;4.05;;
19587;SDS011;9940;47.252;8.696;2023-05-09T13:17:40;3.65;;;3.55;;
19587;SDS011;9940;47.252;8.696;2023-05-09T13:20:09;4.30;;;3.90;;
19587;SDS011;9940;47.252;8.696;2023-05-09T13:22:34;5.57;;;5.18;;
19587;SDS011;9940;47.252;8.696;2023-05-09T13:25:05;4.85;;;4.65;;
19587;SDS011;9940;47.252;8.696;2023-05-09T13:27:31;9.45;;;9.05;;
19587;SDS011;9940;47.252;8.696;2023-05-09T13:29:57;7.30;;;6.90;;
19587;SDS011;9940;47.252;8.696;2023-05-09T13:32:23;7.20;;;6.90;;
19587;SDS011;9940;47.252;8.696;2023-05-09T13:34:52;6.70;;;6.40;;
19587;SDS011;9940;47.252;8.696;2023-05-09T13:37:17;8.52;;;8.23;;
19587;SDS011;9940;47.252;8.696;2023-05-09T13:39:43;11.85;;;11.35;;
19587;SDS011;9940;47.252;8.696;2023-05-09T13:42:08;9.32;;;8.82;;
19587;SDS011;9940;47.252;8.696;2023-05-09T13:44:38;12.43;;;11.85;;
19587;SDS011;9940;47.252;8.696;2023-05-09T13:47:07;6.85;;;6.55;;
19587;SDS011;9940;47.252;8.696;2023-05-09T13:49:33;10.18;;;9.68;;
19587;SDS011;9940;47.252;8.696;2023-05-09T13:51:59;14.45;;;13.75;;
19587;SDS011;9940;47.252;8.696;2023-05-09T13:54:24;23.88;;;22.83;;
19587;SDS011;9940;47.252;8.696;2023-05-09T13:56:53;12.25;;;11.60;;
19587;SDS011;9940;47.252;8.696;2023-05-09T13:59:19;14.05;;;13.43;;
19587;SDS011;9940;47.252;8.696;2023-05-09T14:01:45;9.00;;;8.55;;
19587;SDS011;9940;47.252;8.696;2023-05-09T14:04:12;10.60;;;10.10;;
19587;SDS011;9940;47.252;8.696;2023-05-09T14:06:40;11.02;;;10.55;;
19587;SDS011;9940;47.252;8.696;2023-05-09T14:09:12;14.75;;;13.93;;
19587;SDS011;9940;47.252;8.696;2023-05-09T14:11:39;9.90;;;9.38;;
19587;SDS011;9940;47.252;8.696;2023-05-09T14:14:05;6.60;;;6.20;;
19587;SDS011;9940;47.252;8.696;2023-05-09T14:16:33;5.55;;;5.25;;
19587;SDS011;9940;47.252;8.696;2023-05-09T14:19:01;7.22;;;6.93;;
19587;SDS011;9940;47.252;8.696;2023-05-09T14:21:29;6.88;;;6.57;;
19587;SDS011;9940;47.252;8.696;2023-05-09T14:23:55;4.57;;;4.38;;
19587;SDS011;9940;47.252;8.696;2023-05-09T14:26:21;4.90;;;4.68;;
19587;SDS011;9940;47.252;8.696;2023-05-09T14:28:47;4.18;;;3.97;;
19587;SDS011;9940;47.252;8.696;2023-05-09T14:31:17;4.93;;;4.57;;
19587;SDS011;9940;47.252;8.696;2023-05-09T14:33:43;4.05;;;3.85;;
19587;SDS011;9940;47.252;8.696;2023-05-09T14:36:09;4.05;;;3.85;;
19587;SDS011;9940;47.252;8.696;2023-05-09T14:38:35;4.18;;;3.97;;
19587;SDS011;9940;47.252;8.696;2023-05-09T14:41:01;2.85;;;2.75;;
19587;SDS011;9940;47.252;8.696;2023-05-09T14:43:27;3.22;;;3.00;;
19587;SDS011;9940;47.252;8.696;2023-05-09T14:45:53;4.10;;;3.80;;
19587;SDS011;9940;47.252;8.696;2023-05-09T14:48:19;3.35;;;2.72;;
19587;SDS011;9940;47.252;8.696;2023-05-09T14:50:47;3.90;;;3.70;;
19587;SDS011;9940;47.252;8.696;2023-05-09T14:53:21;4.10;;;3.80;;
19587;SDS011;9940;47.252;8.696;2023-05-09T14:55:49;4.63;;;3.53;;
19587;SDS011;9940;47.252;8.696;2023-05-09T14:58:17;6.60;;;6.03;;
19587;SDS011;9940;47.252;8.696;2023-05-09T15:00:43;10.13;;;7.15;;
19587;SDS011;9940;47.252;8.696;2023-05-09T15:03:12;4.32;;;4.13;;
19587;SDS011;9940;47.252;8.696;2023-05-09T15:05:37;5.78;;;5.38;;
19587;SDS011;9940;47.252;8.696;2023-05-09T15:08:04;7.10;;;6.40;;
19587;SDS011;9940;47.252;8.696;2023-05-09T15:10:30;4.70;;;4.30;;
19587;SDS011;9940;47.252;8.696;2023-05-09T15:12:57;5.00;;;3.97;;
19587;SDS011;9940;47.252;8.696;2023-05-09T15:15:27;4.22;;;3.95;;
19587;SDS011;9940;47.252;8.696;2023-05-09T15:17:53;3.50;;;3.30;;
19587;SDS011;9940;47.252;8.696;2023-05-09T15:20:21;3.92;;;3.45;;
19587;SDS011;9940;47.252;8.696;2023-05-09T15:22:49;4.20;;;3.80;;
19587;SDS011;9940;47.252;8.696;2023-05-09T15:25:17;4.35;;;4.05;;
19587;SDS011;9940;47.252;8.696;2023-05-09T15:27:46;4.47;;;3.60;;
19587;SDS011;9940;47.252;8.696;2023-05-09T15:30:14;3.90;;;3.50;;
19587;SDS011;9940;47.252;8.696;2023-05-09T15:32:42;3.05;;;2.85;;
19587;SDS011;9940;47.252;8.696;2023-05-09T15:35:08;4.65;;;2.90;;
19587;SDS011;9940;47.252;8.696;2023-05-09T15:37:34;2.75;;;2.55;;
19587;SDS011;9940;47.252;8.696;2023-05-09T15:40:00;2.47;;;2.15;;